Time;durP1;ratioP1;P1;durP2;ratioP2;P2;SDS_P1;SDS_P2;PMS_P1;PMS_P2;Temp;Humidity;BMP_temperature;BMP_pressure;BME280_temperature;BME280_humidity;BME280_pressure;Samples;Min_cycle;Max_cycle;Signal;HPM_P1;HPM_P2
2023/05/19 00:00:43;;;;;;;5.40;3.60;;;11.70;1.00;;;;;;5095504;28;20649;-46
2023/05/19 00:03:11;;;;;;;8.30;3.90;;;11.70;1.00;;;;;;5094820;28;20896;-47
2023/05/19 00:05:39;;;;;;;5.63;3.77;;;11.70;1.00;;;;;;5095086;28;20422;-48
2023/05/19 00:08:06;;;;;;;6.43;4.27;;;11.70;1.00;;;;;;5098233;28;20426;-47
2023/05/19 00:10:32;;;;;;;7.63;4.23;;;11.70;1.00;;;;;;5097066;28;20437;-47
2023/05/19 00:12:58;;;;;;;7.13;3.60;;;11.80;1.00;;;;;;5096801;28;20560;-47
2023/05/19 00:15:24;;;;;;;7.53;3.73;;;11.70;1.00;;;;;;5098020;28;20430;-47
2023/05/19 00:17:51;;;;;;;5.77;3.57;;;11.70;1.00;;;;;;5099058;28;20439;-46
2023/05/19 00:20:16;;;;;;;7.93;4.00;;;11.60;1.00;;;;;;5096885;28;20597;-46
2023/05/19 00:22:43;;;;;;;10.23;4.20;;;11.60;1.00;;;;;;5097818;28;20410;-47
2023/05/19 00:25:09;;;;;;;7.87;4.40;;;11.60;1.00;;;;;;5098313;28;20172;-48
2023/05/19 00:27:35;;;;;;;8.03;3.97;;;11.50;1.00;;;;;;5097394;28;20472;-45
2023/05/19 00:30:00;;;;;;;9.30;3.77;;;11.50;1.00;;;;;;5097576;28;20204;-47
2023/05/19 00:32:26;;;;;;;9.90;4.37;;;11.40;3.50;;;;;;5096508;28;20259;-46
2023/05/19 00:34:51;;;;;;;4.00;3.50;;;11.40;10.90;;;;;;5096699;28;20180;-47
2023/05/19 00:37:17;;;;;;;8.87;3.93;;;11.40;14.70;;;;;;5096985;28;20211;-47
2023/05/19 00:39:42;;;;;;;6.40;4.20;;;11.30;24.10;;;;;;5097624;28;20180;-47
2023/05/19 00:42:08;;;;;;;7.60;4.73;;;11.30;19.00;;;;;;5097756;28;20527;-47
2023/05/19 00:44:36;;;;;;;5.10;3.10;;;11.10;24.10;;;;;;5095913;28;20176;-46
2023/05/19 00:47:02;;;;;;;6.33;3.73;;;11.10;34.00;;;;;;5095981;28;20242;-46
2023/05/19 00:49:28;;;;;;;7.10;4.30;;;11.10;52.70;;;;;;5097973;28;20419;-49
2023/05/19 00:51:54;;;;;;;6.77;3.50;;;11.00;72.30;;;;;;5097249;28;20253;-49
2023/05/19 00:54:20;;;;;;;4.10;3.70;;;11.00;99.90;;;;;;5096224;28;20244;-46
2023/05/19 00:56:45;;;;;;;7.67;3.87;;;11.10;1.00;;;;;;5096461;28;20527;-47
2023/05/19 00:59:11;;;;;;;6.33;4.03;;;11.10;99.90;;;;;;5096959;28;20418;-46
2023/05/19 01:01:36;;;;;;;4.70;3.47;;;11.00;99.90;;;;;;5096500;28;20177;-47
2023/05/19 01:04:03;;;;;;;6.60;4.60;;;11.00;99.90;;;;;;5094931;28;20192;-45
2023/05/19 01:06:29;;;;;;;7.13;4.83;;;10.90;99.90;;;;;;5096456;28;20172;-47
2023/05/19 01:08:56;;;;;;;7.27;4.23;;;10.90;99.90;;;;;;5097453;28;20411;-46
2023/05/19 01:11:21;;;;;;;4.90;3.60;;;10.90;99.90;;;;;;5094834;28;20215;-46
2023/05/19 01:13:47;;;;;;;7.80;4.00;;;10.80;99.90;;;;;;5097516;28;20503;-46
2023/05/19 01:16:18;;;;;;;6.97;4.23;;;10.70;99.90;;;;;;5097904;28;20436;-47
2023/05/19 01:18:46;;;;;;;11.50;4.20;;;10.70;99.90;;;;;;5098021;28;20422;-45
2023/05/19 01:21:46;;;;;;;7.00;3.73;;;10.70;99.90;;;;;;5081940;28;20859;-47
2023/05/19 01:24:21;;;;;;;6.83;3.17;;;10.70;99.90;;;;;;5097174;28;20434;-46
2023/05/19 01:27:24;;;;;;;6.60;3.70;;;10.70;99.90;;;;;;5096747;28;20442;-47
2023/05/19 01:30:24;;;;;;;7.67;3.53;;;10.60;99.90;;;;;;5098466;28;20488;-47
2023/05/19 01:32:52;;;;;;;4.53;3.30;;;10.60;99.90;;;;;;5097513;28;20458;-46
2023/05/19 01:35:18;;;;;;;5.50;4.13;;;10.50;99.90;;;;;;5095412;28;20418;-46
2023/05/19 01:37:44;;;;;;;10.43;4.30;;;10.50;99.90;;;;;;5097205;28;20427;-45
2023/05/19 01:40:10;;;;;;;6.67;4.07;;;10.50;1.00;;;;;;5097964;28;20430;-46
2023/05/19 01:42:38;;;;;;;5.10;4.00;;;10.50;1.00;;;;;;5097313;28;20398;-49
2023/05/19 01:45:05;;;;;;;7.20;3.73;;;10.50;1.00;;;;;;5096450;28;20461;-46
2023/05/19 01:47:37;;;;;;;4.70;3.87;;;10.50;1.00;;;;;;5096514;28;20426;-48
2023/05/19 01:50:03;;;;;;;5.97;3.40;;;10.50;1.00;;;;;;5098072;28;20416;-49
2023/05/19 01:52:28;;;;;;;4.93;3.50;;;10.50;1.00;;;;;;5097304;28;20509;-47
2023/05/19 01:54:54;;;;;;;9.30;3.70;;;10.50;1.00;;;;;;5096568;28;20709;-46
2023/05/19 01:57:28;;;;;;;6.63;3.80;;;10.40;1.00;;;;;;5096491;28;20180;-45
2023/05/19 02:00:04;;;;;;;9.00;4.10;;;10.40;1.00;;;;;;5097015;28;20496;-48
2023/05/19 02:02:44;;;;;;;6.03;3.73;;;10.50;1.00;;;;;;5097029;28;20552;-46
2023/05/19 02:05:27;;;;;;;5.70;3.47;;;10.40;1.00;;;;;;5097724;28;20406;-48
2023/05/19 02:08:01;;;;;;;5.70;3.60;;;10.40;1.00;;;;;;5097138;28;20889;-47
2023/05/19 02:10:29;;;;;;;6.50;3.97;;;10.40;1.00;;;;;;5096399;28;20505;-47
2023/05/19 02:12:59;;;;;;;6.80;3.50;;;10.40;1.00;;;;;;5095026;28;20465;-46
2023/05/19 02:15:29;;;;;;;5.67;3.73;;;10.40;1.00;;;;;;5097053;28;20785;-47
2023/05/19 02:17:56;;;;;;;5.83;3.93;;;10.50;27.20;;;;;;5095060;28;20411;-47
2023/05/19 02:20:47;;;;;;;6.60;4.30;;;10.50;93.80;;;;;;5078539;28;20524;-46
2023/05/19 02:23:13;;;;;;;11.43;4.80;;;10.50;99.90;;;;;;5094170;28;20499;-48
2023/05/19 02:25:38;;;;;;;5.10;4.20;;;10.50;99.90;;;;;;5095140;28;20812;-47
2023/05/19 02:28:05;;;;;;;7.20;4.50;;;10.50;99.90;;;;;;5094023;28;20224;-51
2023/05/19 02:30:31;;;;;;;6.20;3.80;;;10.50;99.90;;;;;;5093781;28;20700;-50
2023/05/19 02:32:56;;;;;;;8.20;4.37;;;10.60;99.90;;;;;;5091357;28;20501;-49
2023/05/19 02:35:22;;;;;;;3.93;3.47;;;10.60;99.90;;;;;;5096407;28;20343;-47
2023/05/19 02:37:47;;;;;;;6.63;4.10;;;10.60;99.90;;;;;;5095671;28;20188;-46
2023/05/19 02:40:13;;;;;;;6.23;4.40;;;10.50;1.00;;;;;;5096901;28;20610;-47
2023/05/19 02:42:39;;;;;;;8.70;4.40;;;10.60;1.00;;;;;;5096469;28;20184;-47
2023/05/19 02:45:05;;;;;;;4.13;3.37;;;10.60;1.00;;;;;;5097010;28;20164;-47
2023/05/19 02:47:30;;;;;;;4.93;4.13;;;10.60;1.00;;;;;;5097139;28;20172;-46
2023/05/19 02:49:56;;;;;;;5.30;3.97;;;10.60;1.00;;;;;;5096618;28;20497;-47
2023/05/19 02:52:21;;;;;;;6.70;3.77;;;10.60;1.00;;;;;;5096537;28;20251;-46
2023/05/19 02:54:47;;;;;;;4.57;3.43;;;10.60;99.90;;;;;;5096322;28;20204;-48
2023/05/19 02:57:13;;;;;;;7.60;4.30;;;10.50;99.90;;;;;;5096333;28;20540;-47
2023/05/19 02:59:39;;;;;;;5.70;3.90;;;10.50;99.90;;;;;;5096418;28;20771;-49
2023/05/19 03:02:04;;;;;;;4.87;3.50;;;10.50;99.90;;;;;;5095688;28;20419;-48
2023/05/19 03:04:30;;;;;;;6.17;3.80;;;10.50;99.90;;;;;;5096557;28;20172;-46
2023/05/19 03:06:56;;;;;;;4.70;3.83;;;10.50;99.90;;;;;;5096047;28;20245;-48
2023/05/19 03:09:22;;;;;;;5.03;3.70;;;10.50;99.90;;;;;;5093919;28;20184;-47
2023/05/19 03:11:47;;;;;;;6.10;4.00;;;10.50;99.90;;;;;;5096010;28;20426;-47
2023/05/19 03:14:13;;;;;;;4.93;3.53;;;10.50;99.90;;;;;;5096509;28;20219;-47
2023/05/19 03:16:42;;;;;;;7.97;4.30;;;10.50;1.00;;;;;;5094966;28;20190;-47
2023/05/19 03:19:08;;;;;;;5.87;4.43;;;10.50;1.00;;;;;;5096470;28;20180;-48
2023/05/19 03:21:34;;;;;;;6.00;4.20;;;10.50;1.00;;;;;;5095342;28;20804;-47
2023/05/19 03:24:03;;;;;;;6.67;3.93;;;10.50;1.00;;;;;;5095808;28;20461;-47
2023/05/19 03:26:28;;;;;;;4.80;4.10;;;10.50;1.00;;;;;;5096382;28;20430;-47
2023/05/19 03:28:54;;;;;;;5.63;4.50;;;10.50;1.00;;;;;;5095912;28;20565;-46
2023/05/19 03:31:20;;;;;;;5.20;4.03;;;10.50;1.00;;;;;;5084037;28;20181;-47
2023/05/19 03:33:46;;;;;;;5.83;4.27;;;10.50;1.00;;;;;;5076194;28;20477;-48
2023/05/19 03:36:11;;;;;;;7.80;4.03;;;10.50;1.00;;;;;;5089864;28;20168;-48
2023/05/19 03:38:37;;;;;;;9.30;4.40;;;10.50;1.00;;;;;;5096172;28;20245;-47
2023/05/19 03:41:03;;;;;;;4.13;3.73;;;10.40;1.00;;;;;;5097786;28;20183;-49
2023/05/19 03:43:28;;;;;;;6.07;3.87;;;10.40;1.00;;;;;;5100168;28;20428;-47
2023/05/19 03:45:54;;;;;;;6.47;3.83;;;10.40;20.80;;;;;;5097169;28;20172;-46
2023/05/19 03:48:19;;;;;;;5.43;4.40;;;10.40;63.40;;;;;;5098791;28;20213;-46
2023/05/19 03:50:47;;;;;;;9.67;5.00;;;10.40;42.90;;;;;;5098962;28;20290;-46
2023/05/19 03:53:12;;;;;;;4.97;3.87;;;10.40;72.30;;;;;;5100463;28;20625;-46
2023/05/19 03:55:38;;;;;;;5.30;3.83;;;10.40;99.90;;;;;;5100147;28;20493;-46
2023/05/19 03:58:03;;;;;;;6.93;4.33;;;10.40;35.50;;;;;;5099778;28;20416;-46
2023/05/19 04:00:29;;;;;;;6.27;4.17;;;10.40;5.20;;;;;;5099967;28;20474;-46
2023/05/19 04:02:55;;;;;;;4.67;3.67;;;10.40;1.00;;;;;;5099035;28;20291;-47
2023/05/19 04:05:20;;;;;;;6.00;4.60;;;10.40;2.70;;;;;;5099575;28;20176;-47
2023/05/19 04:07:46;;;;;;;9.83;4.43;;;10.40;36.30;;;;;;5098364;28;20183;-48
2023/05/19 04:10:12;;;;;;;5.73;4.10;;;10.50;1.00;;;;;;5096444;28;20377;-46
2023/05/19 04:12:38;;;;;;;5.60;3.57;;;10.50;1.00;;;;;;5094324;28;20187;-46
2023/05/19 04:15:07;;;;;;;8.20;4.73;;;10.50;1.00;;;;;;5094281;28;20418;-49
2023/05/19 04:17:32;;;;;;;7.00;3.90;;;10.50;1.00;;;;;;5096204;28;20447;-47
2023/05/19 04:19:58;;;;;;;8.10;4.80;;;10.50;1.00;;;;;;5097295;28;20395;-47
2023/05/19 04:22:23;;;;;;;4.37;3.80;;;10.50;1.00;;;;;;5096281;28;20513;-45
2023/05/19 04:24:50;;;;;;;6.57;4.50;;;10.50;1.00;;;;;;5098002;28;20192;-48
2023/05/19 04:27:16;;;;;;;4.93;3.87;;;10.60;1.00;;;;;;5098153;28;20192;-47
2023/05/19 04:29:42;;;;;;;5.27;4.27;;;10.60;1.00;;;;;;5097406;28;20406;-46
2023/05/19 04:32:09;;;;;;;6.47;4.83;;;10.60;1.00;;;;;;5097771;28;20473;-47
2023/05/19 04:34:39;;;;;;;7.67;4.40;;;10.70;1.00;;;;;;5097342;28;20840;-48
2023/05/19 04:37:08;;;;;;;5.80;4.27;;;10.70;1.00;;;;;;5096066;28;20422;-45
2023/05/19 04:39:37;;;;;;;5.90;4.53;;;10.70;1.00;;;;;;5098366;28;20430;-47
2023/05/19 04:42:03;;;;;;;7.53;4.57;;;10.80;1.00;;;;;;5097529;28;20406;-46
2023/05/19 04:44:29;;;;;;;6.57;4.23;;;10.90;1.00;;;;;;5098052;28;20727;-47
2023/05/19 04:46:56;;;;;;;11.00;4.50;;;10.90;1.00;;;;;;5098621;28;20482;-46
2023/05/19 04:49:23;;;;;;;12.43;5.00;;;10.90;1.00;;;;;;5098344;28;20430;-46
2023/05/19 04:51:50;;;;;;;9.40;5.20;;;10.90;1.00;;;;;;5097797;28;20413;-47
2023/05/19 04:54:16;;;;;;;7.40;5.23;;;11.00;1.00;;;;;;5097083;28;20527;-46
2023/05/19 04:56:42;;;;;;;8.63;4.87;;;11.00;1.00;;;;;;5095842;28;20414;-46
2023/05/19 04:59:08;;;;;;;7.80;4.70;;;11.00;99.90;;;;;;5096922;28;20241;-47
2023/05/19 05:01:39;;;;;;;5.30;3.90;;;11.10;99.90;;;;;;5095686;28;20409;-47
2023/05/19 05:04:04;;;;;;;4.67;4.20;;;11.10;99.90;;;;;;5094381;28;20481;-49
2023/05/19 05:06:30;;;;;;;7.17;4.27;;;11.10;99.90;;;;;;5090086;28;20814;-46
2023/05/19 05:08:56;;;;;;;10.20;5.00;;;11.10;99.90;;;;;;5076260;28;20423;-47
2023/05/19 05:11:22;;;;;;;6.57;4.43;;;11.20;99.90;;;;;;5087218;28;20220;-50
2023/05/19 05:13:48;;;;;;;6.33;4.70;;;11.10;99.90;;;;;;5093224;28;20516;-48
2023/05/19 05:16:14;;;;;;;7.03;5.07;;;11.10;99.90;;;;;;5096130;28;20419;-46
2023/05/19 05:18:40;;;;;;;7.77;4.00;;;11.20;99.90;;;;;;5094370;28;20435;-47
2023/05/19 05:21:06;;;;;;;7.03;4.83;;;11.20;99.90;;;;;;5092790;28;20406;-48
2023/05/19 05:23:32;;;;;;;5.10;4.43;;;11.30;99.90;;;;;;5093912;28;20506;-49
2023/05/19 05:25:58;;;;;;;5.33;4.20;;;11.30;99.90;;;;;;5095238;28;20414;-47
2023/05/19 05:28:24;;;;;;;5.80;3.90;;;11.40;99.90;;;;;;5096828;28;20481;-47
2023/05/19 05:30:50;;;;;;;5.77;4.23;;;11.40;99.90;;;;;;5095639;28;20207;-46
2023/05/19 05:33:16;;;;;;;7.23;4.53;;;11.60;99.90;;;;;;5095506;28;20208;-48
2023/05/19 05:35:42;;;;;;;9.40;5.10;;;11.70;49.30;;;;;;5095553;28;20418;-46
2023/05/19 05:38:10;;;;;;;7.00;4.83;;;11.80;8.40;;;;;;5095962;28;20521;-49
2023/05/19 05:40:36;;;;;;;9.37;4.80;;;11.90;1.00;;;;;;5094863;28;20165;-48
2023/05/19 05:43:01;;;;;;;6.80;4.03;;;12.00;1.00;;;;;;5094092;28;20886;-48
2023/05/19 05:45:27;;;;;;;4.23;3.80;;;11.90;1.00;;;;;;5094099;28;20176;-49
2023/05/19 05:47:53;;;;;;;7.70;4.77;;;12.10;1.00;;;;;;5092489;28;20364;-49
2023/05/19 05:50:19;;;;;;;8.70;4.53;;;12.20;1.00;;;;;;5093583;28;20414;-48
2023/05/19 05:52:46;;;;;;;5.83;3.93;;;12.30;1.00;;;;;;5092773;28;20537;-48
2023/05/19 05:55:12;;;;;;;8.17;5.00;;;12.60;1.00;;;;;;5093564;28;20414;-47
2023/05/19 05:57:40;;;;;;;7.37;4.57;;;12.80;1.00;;;;;;5093008;28;20485;-47
2023/05/19 06:00:14;;;;;;;8.87;4.07;;;13.00;1.00;;;;;;5093138;28;20431;-48
2023/05/19 06:02:47;;;;;;;6.07;4.97;;;13.30;99.90;;;;;;5094141;28;20422;-47
2023/05/19 06:05:15;;;;;;;7.73;4.67;;;13.50;99.90;;;;;;5095661;28;20414;-47
2023/05/19 06:07:43;;;;;;;5.93;4.00;;;13.70;99.90;;;;;;5095760;28;20505;-47
2023/05/19 06:10:09;;;;;;;7.87;4.30;;;13.90;99.90;;;;;;5095352;28;20410;-47
2023/05/19 06:12:38;;;;;;;8.30;4.53;;;14.10;99.90;;;;;;5093639;28;20916;-47
2023/05/19 06:15:05;;;;;;;6.70;5.13;;;14.20;99.90;;;;;;5093824;28;20172;-48
2023/05/19 06:17:30;;;;;;;6.33;4.93;;;14.30;99.90;;;;;;5092270;28;20489;-47
2023/05/19 06:19:56;;;;;;;9.37;4.37;;;14.40;99.90;;;;;;5091441;28;20426;-47
2023/05/19 06:22:21;;;;;;;5.70;4.50;;;14.40;99.90;;;;;;5091697;28;20207;-48
2023/05/19 06:24:47;;;;;;;8.80;5.30;;;14.60;99.90;;;;;;5091240;28;20171;-48
2023/05/19 06:27:13;;;;;;;5.53;3.93;;;14.70;77.20;;;;;;5091681;28;20169;-52
2023/05/19 06:29:38;;;;;;;6.13;4.50;;;14.90;53.60;;;;;;5093002;28;20549;-47
2023/05/19 06:32:04;;;;;;;6.70;4.43;;;14.90;48.70;;;;;;5093101;28;20458;-48
2023/05/19 06:34:30;;;;;;;7.50;4.50;;;15.00;36.70;;;;;;5093725;28;20207;-47
2023/05/19 06:36:55;;;;;;;6.60;4.20;;;15.00;17.40;;;;;;5094920;28;20164;-48
2023/05/19 06:39:21;;;;;;;8.10;4.00;;;15.00;16.60;;;;;;5095416;28;20183;-47
2023/05/19 06:41:47;;;;;;;8.70;4.33;;;15.10;12.00;;;;;;5095536;28;20241;-48
2023/05/19 06:44:12;;;;;;;5.80;4.40;;;15.20;7.70;;;;;;5084728;28;20172;-49
2023/05/19 06:46:38;;;;;;;8.80;4.97;;;15.40;1.00;;;;;;5094591;28;20206;-49
2023/05/19 06:49:03;;;;;;;8.73;5.17;;;15.40;1.00;;;;;;5093606;28;20442;-47
2023/05/19 06:51:30;;;;;;;5.20;4.30;;;15.60;1.00;;;;;;5092371;28;20207;-49
2023/05/19 06:53:56;;;;;;;5.30;3.90;;;15.80;1.00;;;;;;5092249;28;20461;-48
2023/05/19 06:56:22;;;;;;;6.03;4.20;;;15.90;1.00;;;;;;5092483;28;20418;-48
2023/05/19 06:58:47;;;;;;;5.33;3.60;;;16.10;1.00;;;;;;5091845;28;20423;-48
2023/05/19 07:01:13;;;;;;;6.07;4.50;;;16.40;1.00;;;;;;5093324;28;20418;-48
2023/05/19 07:03:38;;;;;;;8.13;5.30;;;16.50;1.00;;;;;;5092532;28;20176;-48
2023/05/19 07:06:04;;;;;;;7.70;5.30;;;16.60;1.00;;;;;;5092777;28;20184;-48
2023/05/19 07:08:30;;;;;;;6.90;4.17;;;16.70;1.00;;;;;;5092084;28;20184;-48
2023/05/19 07:10:55;;;;;;;5.57;4.50;;;16.80;1.00;;;;;;5093580;28;20199;-47
2023/05/19 07:13:21;;;;;;;7.17;5.37;;;17.00;1.00;;;;;;5090422;28;20252;-46
2023/05/19 07:15:51;;;;;;;12.20;5.67;;;17.20;1.00;;;;;;5090722;28;20168;-48
2023/05/19 07:18:18;;;;;;;6.43;4.60;;;17.40;1.00;;;;;;5092211;28;20176;-47
2023/05/19 07:20:45;;;;;;;9.33;5.00;;;17.40;1.00;;;;;;5091836;28;20449;-47
2023/05/19 07:23:11;;;;;;;9.27;4.90;;;17.30;1.00;;;;;;5092222;28;20422;-47
2023/05/19 07:25:36;;;;;;;5.03;4.50;;;17.30;1.00;;;;;;5091388;28;20411;-48
2023/05/19 07:28:02;;;;;;;6.17;5.10;;;17.10;1.00;;;;;;5092927;28;20212;-48
2023/05/19 07:30:29;;;;;;;6.73;4.37;;;16.90;1.00;;;;;;5092494;28;20647;-47
2023/05/19 07:32:55;;;;;;;8.93;5.30;;;17.00;1.00;;;;;;5093403;28;20184;-49
2023/05/19 07:35:21;;;;;;;7.30;4.87;;;17.00;1.00;;;;;;5093494;28;20410;-46
2023/05/19 07:37:51;;;;;;;5.70;4.60;;;17.00;1.00;;;;;;5091307;28;20259;-47
2023/05/19 07:40:17;;;;;;;5.93;4.63;;;17.00;1.00;;;;;;5092505;28;20407;-49
2023/05/19 07:42:43;;;;;;;6.67;4.70;;;17.20;1.00;;;;;;5093223;28;20429;-48
2023/05/19 07:45:09;;;;;;;6.83;4.37;;;17.40;1.00;;;;;;5094397;28;20719;-48
2023/05/19 07:47:35;;;;;;;6.57;4.87;;;17.60;1.00;;;;;;5093815;28;20441;-48
2023/05/19 07:50:01;;;;;;;11.10;5.20;;;17.70;1.00;;;;;;5092028;28;20875;-46
2023/05/19 07:52:26;;;;;;;7.60;4.93;;;17.30;1.00;;;;;;5091640;28;20474;-49
2023/05/19 07:54:52;;;;;;;9.60;4.40;;;17.30;1.00;;;;;;5091372;28;20558;-48
2023/05/19 07:57:17;;;;;;;6.20;4.97;;;17.40;1.00;;;;;;5091141;28;20223;-48
2023/05/19 07:59:43;;;;;;;6.90;4.70;;;17.40;1.00;;;;;;5091439;28;20188;-47
2023/05/19 08:02:09;;;;;;;7.27;4.40;;;17.30;1.00;;;;;;5090852;28;20221;-50
2023/05/19 08:04:35;;;;;;;6.57;5.10;;;17.50;1.00;;;;;;5093667;28;20422;-48
2023/05/19 08:07:01;;;;;;;9.60;4.80;;;17.50;1.00;;;;;;5093862;28;20181;-48
2023/05/19 08:09:26;;;;;;;9.83;4.70;;;17.50;1.00;;;;;;5073936;28;20216;-48
2023/05/19 08:11:52;;;;;;;6.80;4.30;;;17.50;1.00;;;;;;5089174;28;20392;-46
2023/05/19 08:14:19;;;;;;;5.13;4.10;;;17.70;1.00;;;;;;5087421;28;20208;-45
2023/05/19 08:16:45;;;;;;;6.90;4.60;;;17.70;1.00;;;;;;5089634;28;20173;-46
2023/05/19 08:19:10;;;;;;;6.37;4.60;;;17.80;1.00;;;;;;5087481;28;20609;-46
2023/05/19 08:21:36;;;;;;;6.33;3.87;;;17.80;1.00;;;;;;5088996;28;20431;-44
2023/05/19 08:24:02;;;;;;;6.40;4.60;;;17.80;1.00;;;;;;5091536;28;20275;-47
2023/05/19 08:26:29;;;;;;;6.90;4.10;;;17.60;1.00;;;;;;5084851;28;20202;-47
2023/05/19 08:28:55;;;;;;;6.30;4.57;;;17.60;1.00;;;;;;5094030;28;20481;-48
2023/05/19 08:31:21;;;;;;;4.77;4.00;;;17.70;1.00;;;;;;5093812;28;20422;-49
2023/05/19 08:33:50;;;;;;;6.10;4.20;;;17.80;1.00;;;;;;5072317;28;20303;-47
2023/05/19 08:36:15;;;;;;;6.27;4.17;;;17.90;1.00;;;;;;5075730;28;20690;-47
2023/05/19 08:38:41;;;;;;;4.50;3.60;;;17.90;1.00;;;;;;5095360;28;20437;-51
2023/05/19 08:41:07;;;;;;;6.30;5.03;;;17.80;1.00;;;;;;5095926;28;20418;-48
2023/05/19 08:43:33;;;;;;;8.47;4.53;;;17.70;1.00;;;;;;5092711;28;20180;-47
2023/05/19 08:45:59;;;;;;;6.73;4.47;;;17.80;1.00;;;;;;5093738;28;20434;-48
2023/05/19 08:48:28;;;;;;;8.57;5.33;;;17.80;1.00;;;;;;5093836;28;20184;-46
2023/05/19 08:50:57;;;;;;;5.80;4.10;;;17.80;1.00;;;;;;5092919;28;20410;-47
2023/05/19 08:53:27;;;;;;;6.37;4.27;;;18.00;1.00;;;;;;5093455;28;20553;-47
2023/05/19 08:56:13;;;;;;;7.97;3.93;;;18.20;1.00;;;;;;5076024;28;21214;-48
2023/05/19 08:58:40;;;;;;;8.37;4.00;;;18.50;1.00;;;;;;5095978;28;20418;-48
2023/05/19 09:01:06;;;;;;;6.23;3.70;;;18.60;1.00;;;;;;5087937;28;20938;-47
2023/05/19 09:03:37;;;;;;;6.27;4.80;;;18.60;1.00;;;;;;5091635;28;20525;-49
2023/05/19 09:06:11;;;;;;;7.90;4.23;;;18.60;1.00;;;;;;5084343;28;20411;-47
2023/05/19 09:08:38;;;;;;;6.27;4.50;;;18.70;1.00;;;;;;5085395;28;20426;-46
2023/05/19 09:11:03;;;;;;;4.80;4.00;;;18.60;1.00;;;;;;5090174;28;20654;-48
2023/05/19 09:13:29;;;;;;;5.57;3.60;;;18.80;1.00;;;;;;5093230;28;20509;-46
2023/05/19 09:15:59;;;;;;;6.47;3.90;;;18.80;1.00;;;;;;5092798;28;20180;-47
2023/05/19 09:18:25;;;;;;;8.67;4.00;;;18.90;1.00;;;;;;5080334;28;20355;-48
2023/05/19 09:20:59;;;;;;;5.30;3.80;;;18.90;1.00;;;;;;5091710;28;20447;-48
2023/05/19 09:23:29;;;;;;;7.10;3.90;;;18.50;1.00;;;;;;5094073;28;20433;-50
2023/05/19 09:25:55;;;;;;;8.27;3.80;;;18.20;1.00;;;;;;5091608;28;20525;-47
2023/05/19 09:28:33;;;;;;;4.00;3.53;;;18.20;1.00;;;;;;5091545;28;20866;-46
2023/05/19 09:31:13;;;;;;;6.80;3.80;;;18.20;1.00;;;;;;5092356;28;20406;-50
2023/05/19 09:33:41;;;;;;;8.20;4.33;;;18.30;1.00;;;;;;5093855;28;20482;-47
2023/05/19 09:36:09;;;;;;;4.63;3.27;;;18.30;1.00;;;;;;5088539;28;20508;-51
2023/05/19 09:38:36;;;;;;;6.77;4.10;;;18.20;1.00;;;;;;5072215;28;20484;-47
2023/05/19 09:41:02;;;;;;;7.20;4.30;;;18.10;1.00;;;;;;5094977;28;20417;-47
2023/05/19 09:43:29;;;;;;;5.17;4.20;;;18.00;1.00;;;;;;5094733;28;20847;-46
2023/05/19 09:46:00;;;;;;;8.10;4.77;;;18.00;1.00;;;;;;5093982;28;20416;-47
2023/05/19 09:48:35;;;;;;;8.20;4.43;;;18.10;1.00;;;;;;5092617;28;20521;-58
2023/05/19 09:51:02;;;;;;;6.20;4.53;;;17.80;1.00;;;;;;5090413;28;20426;-48
2023/05/19 09:53:35;;;;;;;7.47;4.67;;;17.50;1.00;;;;;;5093300;28;20523;-47
2023/05/19 09:56:02;;;;;;;6.23;4.67;;;17.30;1.00;;;;;;5091319;28;20414;-48
2023/05/19 09:58:35;;;;;;;4.80;4.10;;;17.10;1.00;;;;;;5093522;28;20446;-51
2023/05/19 10:01:01;;;;;;;6.17;4.03;;;17.10;1.00;;;;;;5092916;28;20696;-48
2023/05/19 10:03:27;;;;;;;8.13;3.90;;;16.90;1.00;;;;;;5064043;28;20431;-48
2023/05/19 10:05:52;;;;;;;7.83;4.17;;;16.80;1.00;;;;;;5074936;28;20175;-50
2023/05/19 10:08:18;;;;;;;5.27;3.97;;;16.90;1.00;;;;;;5074532;28;20427;-49
2023/05/19 10:10:48;;;;;;;8.17;4.20;;;16.90;1.00;;;;;;5074606;28;20598;-50
2023/05/19 10:13:15;;;;;;;6.57;4.63;;;16.70;1.00;;;;;;5073704;28;20205;-49
2023/05/19 10:15:44;;;;;;;6.90;4.60;;;16.70;1.00;;;;;;5075190;28;20929;-48
2023/05/19 10:18:11;;;;;;;8.43;4.13;;;16.70;1.00;;;;;;5094639;28;20574;-46
2023/05/19 10:20:36;;;;;;;4.57;4.10;;;16.90;1.00;;;;;;5093454;28;20411;-48
2023/05/19 10:23:02;;;;;;;9.07;4.70;;;16.90;1.00;;;;;;5091997;28;20423;-47
2023/05/19 10:25:31;;;;;;;5.63;4.80;;;16.90;1.00;;;;;;5093335;28;20196;-48
2023/05/19 10:28:06;;;;;;;5.90;4.13;;;17.00;1.00;;;;;;5092946;28;20530;-48
2023/05/19 10:30:38;;;;;;;6.40;4.63;;;17.00;1.00;;;;;;5092916;28;20417;-50
2023/05/19 10:33:09;;;;;;;6.57;4.37;;;17.00;1.00;;;;;;5094703;28;20478;-48
2023/05/19 10:36:09;;;;;;;5.43;4.90;;;17.00;1.00;;;;;;5087285;28;20441;-48
2023/05/19 10:38:52;;;;;;;5.23;3.63;;;17.00;1.00;;;;;;5058086;28;20831;-52
2023/05/19 10:41:30;;;;;;;5.83;4.60;;;17.00;1.00;;;;;;5085902;28;20438;-52
2023/05/19 10:44:21;;;;;;;6.80;3.50;;;16.90;1.00;;;;;;5093435;28;20422;-50
2023/05/19 10:46:46;;;;;;;5.20;3.77;;;16.90;1.00;;;;;;5094278;28;20418;-49
2023/05/19 10:49:21;;;;;;;8.37;4.23;;;17.00;1.00;;;;;;5091153;28;20862;-48
2023/05/19 10:51:47;;;;;;;6.27;3.33;;;17.10;1.00;;;;;;5093274;28;20184;-48
2023/05/19 10:54:16;;;;;;;5.20;4.10;;;17.20;1.00;;;;;;5079596;28;20467;-46
2023/05/19 10:56:46;;;;;;;6.83;4.13;;;17.10;1.00;;;;;;5073206;28;20266;-45
2023/05/19 10:59:36;;;;;;;7.80;4.20;;;17.10;1.00;;;;;;5072003;28;20492;-46
2023/05/19 11:02:06;;;;;;;5.57;3.80;;;17.20;1.00;;;;;;5086856;28;20897;-47
2023/05/19 11:04:49;;;;;;;4.03;3.33;;;17.20;1.00;;;;;;5083500;28;20434;-46
2023/05/19 11:07:18;;;;;;;6.20;4.20;;;17.20;1.00;;;;;;5090982;28;20821;-46
2023/05/19 11:09:49;;;;;;;9.57;4.80;;;17.30;1.00;;;;;;5075872;28;20504;-45
2023/05/19 11:12:22;;;;;;;4.97;3.40;;;17.20;1.00;;;;;;5078587;28;20419;-46
2023/05/19 11:14:48;;;;;;;6.43;3.77;;;17.40;1.00;;;;;;5094646;28;20557;-45
2023/05/19 11:17:20;;;;;;;4.47;3.80;;;17.20;1.00;;;;;;5093652;28;20536;-47
2023/05/19 11:19:56;;;;;;;6.10;3.77;;;17.40;1.00;;;;;;5094081;28;20440;-46
2023/05/19 11:22:24;;;;;;;6.90;3.87;;;17.30;1.00;;;;;;5092224;28;20971;-49
2023/05/19 11:24:52;;;;;;;5.10;3.60;;;17.40;1.00;;;;;;5084857;28;20454;-46
2023/05/19 11:27:29;;;;;;;5.07;3.80;;;17.50;1.00;;;;;;5072569;28;20751;-45
2023/05/19 11:30:00;;;;;;;4.40;3.70;;;17.50;1.00;;;;;;5073694;28;20450;-47
2023/05/19 11:32:32;;;;;;;7.03;4.13;;;17.50;1.00;;;;;;5070435;28;20433;-45
2023/05/19 11:34:58;;;;;;;5.40;3.80;;;17.50;1.00;;;;;;5087327;28;20483;-46
2023/05/19 11:37:24;;;;;;;5.03;4.20;;;17.50;1.00;;;;;;5092032;28;20433;-47
2023/05/19 11:39:51;;;;;;;8.47;4.10;;;17.70;1.00;;;;;;5092402;28;20839;-48
2023/05/19 11:42:17;;;;;;;6.30;3.60;;;17.80;1.00;;;;;;5093522;28;20179;-47
2023/05/19 11:44:45;;;;;;;5.40;3.90;;;17.70;1.00;;;;;;5092923;28;21031;-47
2023/05/19 11:47:14;;;;;;;7.83;4.50;;;17.80;1.00;;;;;;5093635;28;20407;-47
2023/05/19 11:49:44;;;;;;;6.43;4.17;;;17.80;1.00;;;;;;5093124;28;20426;-47
2023/05/19 11:52:10;;;;;;;8.23;4.17;;;17.80;1.00;;;;;;5092854;28;20554;-47
2023/05/19 11:54:38;;;;;;;4.87;4.37;;;17.70;1.00;;;;;;5094250;28;20474;-45
2023/05/19 11:57:03;;;;;;;7.67;4.27;;;17.60;1.00;;;;;;5092154;28;20414;-45
2023/05/19 11:59:31;;;;;;;5.17;3.67;;;17.60;1.00;;;;;;5092108;28;20536;-48
2023/05/19 12:01:57;;;;;;;6.80;4.47;;;17.50;1.00;;;;;;5092728;28;20180;-47
2023/05/19 12:04:23;;;;;;;6.17;4.40;;;17.30;1.00;;;;;;5079937;28;20451;-47
2023/05/19 12:06:48;;;;;;;7.80;4.43;;;17.10;1.00;;;;;;5077050;28;20431;-48
2023/05/19 12:09:14;;;;;;;8.23;4.03;;;17.00;1.00;;;;;;5076112;28;20188;-46
2023/05/19 12:11:40;;;;;;;10.60;5.17;;;16.90;1.00;;;;;;5074502;28;20255;-47
2023/05/19 12:14:07;;;;;;;8.30;3.87;;;17.00;1.00;;;;;;5074870;28;20201;-50
2023/05/19 12:16:35;;;;;;;8.03;4.73;;;17.10;1.00;;;;;;5078072;28;20534;-47
2023/05/19 12:19:04;;;;;;;6.33;4.07;;;17.20;1.00;;;;;;5096683;28;20473;-45
2023/05/19 12:21:30;;;;;;;7.83;5.07;;;17.20;1.00;;;;;;5097124;28;20415;-47
2023/05/19 12:23:57;;;;;;;5.77;4.07;;;17.20;1.00;;;;;;5082433;28;20469;-46
2023/05/19 12:26:22;;;;;;;7.30;6.40;;;17.20;1.00;;;;;;5077937;28;20427;-48
2023/05/19 12:28:49;;;;;;;8.07;5.27;;;17.20;1.00;;;;;;5077695;28;20578;-49
2023/05/19 12:31:16;;;;;;;8.60;6.23;;;17.20;1.00;;;;;;5077992;28;20185;-47
2023/05/19 12:33:45;;;;;;;10.37;9.40;;;17.20;1.00;;;;;;5089187;28;20530;-46
2023/05/19 12:36:12;;;;;;;10.70;9.30;;;17.20;1.00;;;;;;5079590;28;20414;-48
2023/05/19 12:38:38;;;;;;;8.97;6.83;;;17.30;1.00;;;;;;5096122;28;20422;-47
2023/05/19 12:41:06;;;;;;;5.77;5.23;;;17.00;1.00;;;;;;5096475;28;20413;-47
2023/05/19 12:43:32;;;;;;;8.20;5.77;;;16.80;1.00;;;;;;5095865;28;20184;-47
2023/05/19 12:46:09;;;;;;;8.30;6.27;;;16.60;1.00;;;;;;5092342;28;20438;-47
2023/05/19 12:48:40;;;;;;;5.77;5.27;;;16.40;1.00;;;;;;5095048;28;20430;-53
2023/05/19 12:51:06;;;;;;;6.10;5.20;;;16.30;1.00;;;;;;5088449;28;20624;-50
2023/05/19 12:53:32;;;;;;;7.70;7.00;;;16.50;1.00;;;;;;5075696;28;20919;-46
2023/05/19 12:55:57;;;;;;;6.70;6.07;;;16.60;1.00;;;;;;5090607;28;20207;-48